sensor_id;sensor_type;location;lat;lon;timestamp;pressure;altitude;pressure_sealevel;temperature
41940;BMP180;23057;48.554;14.454;2022-09-12T00:00:00;93957.00;;;20.10
41940;BMP180;23057;48.554;14.454;2022-09-12T00:02:31;93948.00;;;20.20
41940;BMP180;23057;48.554;14.454;2022-09-12T00:05:02;93953.00;;;20.20
41940;BMP180;23057;48.554;14.454;2022-09-12T00:07:34;93955.00;;;20.20
41940;BMP180;23057;48.554;14.454;2022-09-12T00:10:05;93954.00;;;20.20
41940;BMP180;23057;48.554;14.454;2022-09-12T00:12:36;93951.00;;;20.30
41940;BMP180;23057;48.554;14.454;2022-09-12T00:15:08;93953.00;;;20.30
41940;BMP180;23057;48.554;14.454;2022-09-12T00:17:40;93941.00;;;20.20
41940;BMP180;23057;48.554;14.454;2022-09-12T00:20:10;93950.00;;;20.20
41940;BMP180;23057;48.554;14.454;2022-09-12T00:22:41;93947.00;;;20.20
41940;BMP180;23057;48.554;14.454;2022-09-12T00:25:12;93948.00;;;20.10
41940;BMP180;23057;48.554;14.454;2022-09-12T00:27:43;93950.00;;;20.20
41940;BMP180;23057;48.554;14.454;2022-09-12T00:30:13;93947.00;;;20.20
41940;BMP180;23057;48.554;14.454;2022-09-12T00:32:44;93941.00;;;20.20
41940;BMP180;23057;48.554;14.454;2022-09-12T00:35:15;93949.00;;;20.20
41940;BMP180;23057;48.554;14.454;2022-09-12T00:37:46;93941.00;;;20.10
41940;BMP180;23057;48.554;14.454;2022-09-12T00:40:16;93938.00;;;20.10
41940;BMP180;23057;48.554;14.454;2022-09-12T00:42:47;93943.00;;;20.10
41940;BMP180;23057;48.554;14.454;2022-09-12T00:45:28;93940.00;;;20.10
41940;BMP180;23057;48.554;14.454;2022-09-12T00:48:01;93934.00;;;20.10
41940;BMP180;23057;48.554;14.454;2022-09-12T00:50:33;93937.00;;;20.10
41940;BMP180;23057;48.554;14.454;2022-09-12T00:53:06;93940.00;;;20.10
41940;BMP180;23057;48.554;14.454;2022-09-12T00:55:40;93939.00;;;20.10
41940;BMP180;23057;48.554;14.454;2022-09-12T00:58:21;93934.00;;;20.00
41940;BMP180;23057;48.554;14.454;2022-09-12T01:00:56;93929.00;;;20.00
41940;BMP180;23057;48.554;14.454;2022-09-12T01:03:28;93941.00;;;19.90
41940;BMP180;23057;48.554;14.454;2022-09-12T01:06:14;93930.00;;;19.80
41940;BMP180;23057;48.554;14.454;2022-09-12T01:08:55;93924.00;;;19.80
41940;BMP180;23057;48.554;14.454;2022-09-12T01:11:30;93919.00;;;19.80
41940;BMP180;23057;48.554;14.454;2022-09-12T01:14:05;93920.00;;;19.80
41940;BMP180;23057;48.554;14.454;2022-09-12T01:16:37;93915.00;;;19.90
41940;BMP180;23057;48.554;14.454;2022-09-12T01:32:03;93896.00;;;19.60
41940;BMP180;23057;48.554;14.454;2022-09-12T01:47:11;93893.00;;;19.50
41940;BMP180;23057;48.554;14.454;2022-09-12T01:50:00;93886.00;;;19.50
41940;BMP180;23057;48.554;14.454;2022-09-12T01:52:46;93892.00;;;19.50
41940;BMP180;23057;48.554;14.454;2022-09-12T01:55:26;93895.00;;;19.50
41940;BMP180;23057;48.554;14.454;2022-09-12T02:00:43;93895.00;;;19.30
41940;BMP180;23057;48.554;14.454;2022-09-12T02:03:23;93893.00;;;19.30
41940;BMP180;23057;48.554;14.454;2022-09-12T02:06:05;93887.00;;;19.20
41940;BMP180;23057;48.554;14.454;2022-09-12T02:08:44;93890.00;;;19.20
41940;BMP180;23057;48.554;14.454;2022-09-12T02:11:20;93887.00;;;19.20
41940;BMP180;23057;48.554;14.454;2022-09-12T02:14:09;93890.00;;;19.20
41940;BMP180;23057;48.554;14.454;2022-09-12T02:16:50;93890.00;;;19.20
41940;BMP180;23057;48.554;14.454;2022-09-12T02:19:29;93890.00;;;19.20
41940;BMP180;23057;48.554;14.454;2022-09-12T02:22:05;93886.00;;;19.20
41940;BMP180;23057;48.554;14.454;2022-09-12T02:24:45;93885.00;;;19.20
41940;BMP180;23057;48.554;14.454;2022-09-12T02:27:23;93883.00;;;19.20
41940;BMP180;23057;48.554;14.454;2022-09-12T02:30:00;93876.00;;;19.20
41940;BMP180;23057;48.554;14.454;2022-09-12T02:32:44;93877.00;;;19.30
41940;BMP180;23057;48.554;14.454;2022-09-12T02:35:45;93881.00;;;19.30
41940;BMP180;23057;48.554;14.454;2022-09-12T02:38:24;93875.00;;;19.20
41940;BMP180;23057;48.554;14.454;2022-09-12T02:40:57;93870.00;;;19.20
41940;BMP180;23057;48.554;14.454;2022-09-12T02:43:28;93867.00;;;19.10
41940;BMP180;23057;48.554;14.454;2022-09-12T02:45:59;93870.00;;;19.10
41940;BMP180;23057;48.554;14.454;2022-09-12T02:48:33;93872.00;;;19.10
41940;BMP180;23057;48.554;14.454;2022-09-12T02:51:09;93868.00;;;19.10
41940;BMP180;23057;48.554;14.454;2022-09-12T02:53:41;93870.00;;;19.10
41940;BMP180;23057;48.554;14.454;2022-09-12T02:56:18;93874.00;;;19.10
41940;BMP180;23057;48.554;14.454;2022-09-12T02:59:00;93870.00;;;19.10
41940;BMP180;23057;48.554;14.454;2022-09-12T03:05:08;93867.00;;;19.00
41940;BMP180;23057;48.554;14.454;2022-09-12T03:14:10;93858.00;;;18.70
41940;BMP180;23057;48.554;14.454;2022-09-12T03:16:55;93853.00;;;18.60
41940;BMP180;23057;48.554;14.454;2022-09-12T03:22:15;93861.00;;;18.40
41940;BMP180;23057;48.554;14.454;2022-09-12T03:27:58;93859.00;;;18.30
41940;BMP180;23057;48.554;14.454;2022-09-12T03:30:42;93852.00;;;18.30
41940;BMP180;23057;48.554;14.454;2022-09-12T03:33:19;93857.00;;;18.30
41940;BMP180;23057;48.554;14.454;2022-09-12T03:35:52;93853.00;;;18.40
41940;BMP180;23057;48.554;14.454;2022-09-12T03:38:24;93851.00;;;18.40
41940;BMP180;23057;48.554;14.454;2022-09-12T03:40:55;93857.00;;;18.40
41940;BMP180;23057;48.554;14.454;2022-09-12T03:43:26;93855.00;;;18.40
41940;BMP180;23057;48.554;14.454;2022-09-12T03:45:56;93855.00;;;18.40
41940;BMP180;23057;48.554;14.454;2022-09-12T03:48:27;93856.00;;;18.40
41940;BMP180;23057;48.554;14.454;2022-09-12T03:51:03;93854.00;;;18.40
41940;BMP180;23057;48.554;14.454;2022-09-12T03:53:36;93851.00;;;18.30
41940;BMP180;23057;48.554;14.454;2022-09-12T03:56:09;93858.00;;;18.30
41940;BMP180;23057;48.554;14.454;2022-09-12T03:58:42;93851.00;;;18.30
41940;BMP180;23057;48.554;14.454;2022-09-12T04:01:18;93850.00;;;18.30
41940;BMP180;23057;48.554;14.454;2022-09-12T04:03:51;93850.00;;;18.20
41940;BMP180;23057;48.554;14.454;2022-09-12T04:06:22;93851.00;;;18.20
41940;BMP180;23057;48.554;14.454;2022-09-12T04:08:53;93854.00;;;18.20
41940;BMP180;23057;48.554;14.454;2022-09-12T04:11:25;93855.00;;;18.10
41940;BMP180;23057;48.554;14.454;2022-09-12T04:13:56;93856.00;;;18.10
41940;BMP180;23057;48.554;14.454;2022-09-12T04:16:27;93863.00;;;18.00
41940;BMP180;23057;48.554;14.454;2022-09-12T04:18:58;93849.00;;;17.90
41940;BMP180;23057;48.554;14.454;2022-09-12T04:21:28;93859.00;;;17.80
41940;BMP180;23057;48.554;14.454;2022-09-12T04:24:00;93855.00;;;17.80
41940;BMP180;23057;48.554;14.454;2022-09-12T04:26:31;93857.00;;;17.80
41940;BMP180;23057;48.554;14.454;2022-09-12T04:29:02;93849.00;;;17.80
41940;BMP180;23057;48.554;14.454;2022-09-12T04:31:33;93854.00;;;17.80
41940;BMP180;23057;48.554;14.454;2022-09-12T04:34:05;93850.00;;;17.80
41940;BMP180;23057;48.554;14.454;2022-09-12T04:36:37;93853.00;;;17.80
41940;BMP180;23057;48.554;14.454;2022-09-12T04:39:09;93850.00;;;17.90
41940;BMP180;23057;48.554;14.454;2022-09-12T04:41:40;93856.00;;;17.90
41940;BMP180;23057;48.554;14.454;2022-09-12T04:44:13;93846.00;;;17.90
41940;BMP180;23057;48.554;14.454;2022-09-12T04:46:45;93840.00;;;17.90
41940;BMP180;23057;48.554;14.454;2022-09-12T04:49:17;93841.00;;;18.00
41940;BMP180;23057;48.554;14.454;2022-09-12T04:51:51;93842.00;;;18.00
41940;BMP180;23057;48.554;14.454;2022-09-12T04:54:23;93839.00;;;18.00
41940;BMP180;23057;48.554;14.454;2022-09-12T04:56:54;93844.00;;;18.00
41940;BMP180;23057;48.554;14.454;2022-09-12T04:59:24;93848.00;;;18.10
41940;BMP180;23057;48.554;14.454;2022-09-12T05:01:55;93850.00;;;18.00
41940;BMP180;23057;48.554;14.454;2022-09-12T05:04:26;93845.00;;;18.00
41940;BMP180;23057;48.554;14.454;2022-09-12T05:06:57;93863.00;;;18.00
41940;BMP180;23057;48.554;14.454;2022-09-12T05:09:28;93867.00;;;18.10
41940;BMP180;23057;48.554;14.454;2022-09-12T05:11:58;93875.00;;;18.10
41940;BMP180;23057;48.554;14.454;2022-09-12T05:14:30;93872.00;;;18.10
41940;BMP180;23057;48.554;14.454;2022-09-12T05:17:03;93877.00;;;18.20
41940;BMP180;23057;48.554;14.454;2022-09-12T05:19:35;93878.00;;;18.30
41940;BMP180;23057;48.554;14.454;2022-09-12T05:22:06;93878.00;;;18.30
41940;BMP180;23057;48.554;14.454;2022-09-12T05:24:37;93879.00;;;18.20
41940;BMP180;23057;48.554;14.454;2022-09-12T05:27:08;93881.00;;;18.20
41940;BMP180;23057;48.554;14.454;2022-09-12T05:29:39;93886.00;;;18.20
41940;BMP180;23057;48.554;14.454;2022-09-12T05:32:10;93878.00;;;18.30
41940;BMP180;23057;48.554;14.454;2022-09-12T05:34:41;93880.00;;;18.40
41940;BMP180;23057;48.554;14.454;2022-09-12T05:37:12;93886.00;;;18.50
41940;BMP180;23057;48.554;14.454;2022-09-12T05:39:43;93888.00;;;18.60
41940;BMP180;23057;48.554;14.454;2022-09-12T05:42:14;93889.00;;;18.60
41940;BMP180;23057;48.554;14.454;2022-09-12T05:44:45;93888.00;;;18.60
41940;BMP180;23057;48.554;14.454;2022-09-12T05:47:15;93893.00;;;18.70
41940;BMP180;23057;48.554;14.454;2022-09-12T05:49:46;93897.00;;;18.70
41940;BMP180;23057;48.554;14.454;2022-09-12T05:52:20;93894.00;;;18.70
41940;BMP180;23057;48.554;14.454;2022-09-12T05:54:51;93888.00;;;18.80
41940;BMP180;23057;48.554;14.454;2022-09-12T05:57:22;93893.00;;;18.70
41940;BMP180;23057;48.554;14.454;2022-09-12T05:59:52;93893.00;;;18.70
41940;BMP180;23057;48.554;14.454;2022-09-12T06:02:23;93894.00;;;18.60
41940;BMP180;23057;48.554;14.454;2022-09-12T06:04:54;93894.00;;;18.60
41940;BMP180;23057;48.554;14.454;2022-09-12T06:07:25;93897.00;;;18.70
41940;BMP180;23057;48.554;14.454;2022-09-12T06:09:56;93898.00;;;18.80
41940;BMP180;23057;48.554;14.454;2022-09-12T06:12:28;93891.00;;;18.90
41940;BMP180;23057;48.554;14.454;2022-09-12T06:14:59;93892.00;;;19.00
41940;BMP180;23057;48.554;14.454;2022-09-12T06:17:30;93890.00;;;19.20
41940;BMP180;23057;48.554;14.454;2022-09-12T06:20:01;93891.00;;;19.40
41940;BMP180;23057;48.554;14.454;2022-09-12T06:22:33;93884.00;;;19.70
41940;BMP180;23057;48.554;14.454;2022-09-12T06:25:04;93888.00;;;19.90
41940;BMP180;23057;48.554;14.454;2022-09-12T06:27:35;93896.00;;;20.30
41940;BMP180;23057;48.554;14.454;2022-09-12T06:30:06;93891.00;;;20.50
41940;BMP180;23057;48.554;14.454;2022-09-12T06:32:37;93891.00;;;20.50
41940;BMP180;23057;48.554;14.454;2022-09-12T06:35:08;93897.00;;;20.50
41940;BMP180;23057;48.554;14.454;2022-09-12T06:37:39;93895.00;;;20.40
41940;BMP180;23057;48.554;14.454;2022-09-12T06:40:11;93900.00;;;20.40
41940;BMP180;23057;48.554;14.454;2022-09-12T06:42:41;93899.00;;;20.30
41940;BMP180;23057;48.554;14.454;2022-09-12T06:45:12;93898.00;;;20.40
41940;BMP180;23057;48.554;14.454;2022-09-12T06:47:45;93896.00;;;20.40
41940;BMP180;23057;48.554;14.454;2022-09-12T06:50:16;93891.00;;;20.50
41940;BMP180;23057;48.554;14.454;2022-09-12T06:52:48;93898.00;;;20.60
41940;BMP180;23057;48.554;14.454;2022-09-12T06:55:20;93901.00;;;20.70
41940;BMP180;23057;48.554;14.454;2022-09-12T06:57:53;93902.00;;;20.90
41940;BMP180;23057;48.554;14.454;2022-09-12T07:00:24;93905.00;;;21.10
41940;BMP180;23057;48.554;14.454;2022-09-12T07:02:55;93915.00;;;21.30
41940;BMP180;23057;48.554;14.454;2022-09-12T07:05:26;93907.00;;;21.50
41940;BMP180;23057;48.554;14.454;2022-09-12T07:07:57;93896.00;;;21.60
41940;BMP180;23057;48.554;14.454;2022-09-12T07:10:28;93906.00;;;21.70
41940;BMP180;23057;48.554;14.454;2022-09-12T07:13:00;93913.00;;;21.70
41940;BMP180;23057;48.554;14.454;2022-09-12T07:15:33;93911.00;;;21.70
41940;BMP180;23057;48.554;14.454;2022-09-12T07:18:05;93900.00;;;21.70
41940;BMP180;23057;48.554;14.454;2022-09-12T07:20:35;93907.00;;;21.80
41940;BMP180;23057;48.554;14.454;2022-09-12T07:23:07;93920.00;;;21.80
41940;BMP180;23057;48.554;14.454;2022-09-12T07:25:38;93919.00;;;21.80
41940;BMP180;23057;48.554;14.454;2022-09-12T07:28:09;93916.00;;;21.90
41940;BMP180;23057;48.554;14.454;2022-09-12T07:30:40;93914.00;;;21.90
41940;BMP180;23057;48.554;14.454;2022-09-12T07:33:11;93922.00;;;22.00
41940;BMP180;23057;48.554;14.454;2022-09-12T07:35:41;93919.00;;;22.10
41940;BMP180;23057;48.554;14.454;2022-09-12T07:38:12;93913.00;;;22.20
41940;BMP180;23057;48.554;14.454;2022-09-12T07:40:43;93920.00;;;22.30
41940;BMP180;23057;48.554;14.454;2022-09-12T07:43:14;93925.00;;;22.40
41940;BMP180;23057;48.554;14.454;2022-09-12T07:45:44;93922.00;;;22.60
41940;BMP180;23057;48.554;14.454;2022-09-12T07:48:15;93920.00;;;22.70
41940;BMP180;23057;48.554;14.454;2022-09-12T07:50:46;93913.00;;;22.90
41940;BMP180;23057;48.554;14.454;2022-09-12T07:53:17;93912.00;;;23.10
41940;BMP180;23057;48.554;14.454;2022-09-12T07:55:54;93922.00;;;23.30
41940;BMP180;23057;48.554;14.454;2022-09-12T07:58:25;93910.00;;;23.40
41940;BMP180;23057;48.554;14.454;2022-09-12T08:01:16;93910.00;;;23.60
41940;BMP180;23057;48.554;14.454;2022-09-12T08:03:53;93930.00;;;23.70
41940;BMP180;23057;48.554;14.454;2022-09-12T08:06:27;93929.00;;;23.90
41940;BMP180;23057;48.554;14.454;2022-09-12T08:09:02;93932.00;;;24.00
41940;BMP180;23057;48.554;14.454;2022-09-12T08:11:34;93925.00;;;24.10
41940;BMP180;23057;48.554;14.454;2022-09-12T08:14:05;93921.00;;;24.10
41940;BMP180;23057;48.554;14.454;2022-09-12T08:16:36;93921.00;;;24.20
41940;BMP180;23057;48.554;14.454;2022-09-12T08:19:07;93927.00;;;24.30
41940;BMP180;23057;48.554;14.454;2022-09-12T08:21:38;93927.00;;;24.30
41940;BMP180;23057;48.554;14.454;2022-09-12T08:24:11;93934.00;;;24.40
41940;BMP180;23057;48.554;14.454;2022-09-12T08:26:42;93932.00;;;24.40
41940;BMP180;23057;48.554;14.454;2022-09-12T08:29:13;93938.00;;;24.50
41940;BMP180;23057;48.554;14.454;2022-09-12T08:31:43;93932.00;;;24.60
41940;BMP180;23057;48.554;14.454;2022-09-12T08:34:15;93926.00;;;24.70
41940;BMP180;23057;48.554;14.454;2022-09-12T08:36:48;93931.00;;;24.70
41940;BMP180;23057;48.554;14.454;2022-09-12T08:39:19;93931.00;;;24.70
41940;BMP180;23057;48.554;14.454;2022-09-12T08:42:02;93932.00;;;24.70
41940;BMP180;23057;48.554;14.454;2022-09-12T08:47:33;93929.00;;;24.90
41940;BMP180;23057;48.554;14.454;2022-09-12T08:53:00;93930.00;;;25.10
41940;BMP180;23057;48.554;14.454;2022-09-12T08:55:41;93926.00;;;25.20
41940;BMP180;23057;48.554;14.454;2022-09-12T08:58:21;93935.00;;;25.20
41940;BMP180;23057;48.554;14.454;2022-09-12T09:01:29;93936.00;;;25.30
41940;BMP180;23057;48.554;14.454;2022-09-12T09:05:41;93935.00;;;25.30
41940;BMP180;23057;48.554;14.454;2022-09-12T09:13:47;93932.00;;;25.70
41940;BMP180;23057;48.554;14.454;2022-09-12T09:17:02;93929.00;;;25.70
41940;BMP180;23057;48.554;14.454;2022-09-12T09:19:44;93926.00;;;25.80
41940;BMP180;23057;48.554;14.454;2022-09-12T09:25:20;93922.00;;;25.80
41940;BMP180;23057;48.554;14.454;2022-09-12T09:27:58;93929.00;;;25.70
41940;BMP180;23057;48.554;14.454;2022-09-12T09:30:45;93921.00;;;25.70
41940;BMP180;23057;48.554;14.454;2022-09-12T09:33:25;93926.00;;;25.70
41940;BMP180;23057;48.554;14.454;2022-09-12T09:36:13;93926.00;;;25.80
41940;BMP180;23057;48.554;14.454;2022-09-12T09:39:26;93926.00;;;25.90
41940;BMP180;23057;48.554;14.454;2022-09-12T09:44:58;93926.00;;;26.10
41940;BMP180;23057;48.554;14.454;2022-09-12T09:47:32;93915.00;;;26.20
41940;BMP180;23057;48.554;14.454;2022-09-12T09:50:03;93916.00;;;26.10
41940;BMP180;23057;48.554;14.454;2022-09-12T09:52:34;93915.00;;;26.00
41940;BMP180;23057;48.554;14.454;2022-09-12T09:55:12;93913.00;;;25.90
41940;BMP180;23057;48.554;14.454;2022-09-12T09:57:55;93912.00;;;25.90
41940;BMP180;23057;48.554;14.454;2022-09-12T10:00:30;93912.00;;;26.00
41940;BMP180;23057;48.554;14.454;2022-09-12T10:05:54;93905.00;;;26.20
41940;BMP180;23057;48.554;14.454;2022-09-12T10:08:30;93911.00;;;26.20
41940;BMP180;23057;48.554;14.454;2022-09-12T10:11:08;93909.00;;;26.50
41940;BMP180;23057;48.554;14.454;2022-09-12T10:16:29;93902.00;;;27.00
41940;BMP180;23057;48.554;14.454;2022-09-12T10:19:02;93906.00;;;27.00
41940;BMP180;23057;48.554;14.454;2022-09-12T10:21:49;93909.00;;;27.00
41940;BMP180;23057;48.554;14.454;2022-09-12T10:24:34;93908.00;;;27.00
41940;BMP180;23057;48.554;14.454;2022-09-12T10:27:14;93906.00;;;27.10
41940;BMP180;23057;48.554;14.454;2022-09-12T10:32:39;93896.00;;;27.20
41940;BMP180;23057;48.554;14.454;2022-09-12T10:35:29;93904.00;;;27.20
41940;BMP180;23057;48.554;14.454;2022-09-12T10:38:26;93902.00;;;26.90
41940;BMP180;23057;48.554;14.454;2022-09-12T10:41:06;93908.00;;;26.60
41940;BMP180;23057;48.554;14.454;2022-09-12T10:43:39;93908.00;;;26.20
41940;BMP180;23057;48.554;14.454;2022-09-12T10:48:50;93904.00;;;25.50
41940;BMP180;23057;48.554;14.454;2022-09-12T10:51:41;93911.00;;;25.20
41940;BMP180;23057;48.554;14.454;2022-09-12T10:54:16;93910.00;;;25.00
41940;BMP180;23057;48.554;14.454;2022-09-12T10:56:55;93902.00;;;24.90
41940;BMP180;23057;48.554;14.454;2022-09-12T11:02:28;93906.00;;;24.70
41940;BMP180;23057;48.554;14.454;2022-09-12T11:17:32;93891.00;;;24.90
41940;BMP180;23057;48.554;14.454;2022-09-12T11:29:47;93889.00;;;25.00
41940;BMP180;23057;48.554;14.454;2022-09-12T11:35:54;93887.00;;;25.00
41940;BMP180;23057;48.554;14.454;2022-09-12T11:38:50;93887.00;;;25.00
41940;BMP180;23057;48.554;14.454;2022-09-12T11:41:37;93900.00;;;25.10
41940;BMP180;23057;48.554;14.454;2022-09-12T11:44:16;93894.00;;;25.10
41940;BMP180;23057;48.554;14.454;2022-09-12T11:46:51;93902.00;;;25.20
41940;BMP180;23057;48.554;14.454;2022-09-12T11:49:31;93895.00;;;25.30
41940;BMP180;23057;48.554;14.454;2022-09-12T11:52:13;93893.00;;;25.40
41940;BMP180;23057;48.554;14.454;2022-09-12T11:57:51;93889.00;;;25.50
41940;BMP180;23057;48.554;14.454;2022-09-12T12:00:28;93885.00;;;25.50
41940;BMP180;23057;48.554;14.454;2022-09-12T12:05:48;93881.00;;;25.50
41940;BMP180;23057;48.554;14.454;2022-09-12T12:08:25;93886.00;;;25.50
41940;BMP180;23057;48.554;14.454;2022-09-12T12:11:02;93883.00;;;25.70
41940;BMP180;23057;48.554;14.454;2022-09-12T12:16:31;93880.00;;;25.90
41940;BMP180;23057;48.554;14.454;2022-09-12T12:21:45;93884.00;;;26.20
41940;BMP180;23057;48.554;14.454;2022-09-12T12:24:25;93875.00;;;26.20
41940;BMP180;23057;48.554;14.454;2022-09-12T12:27:03;93887.00;;;26.10
41940;BMP180;23057;48.554;14.454;2022-09-12T12:29:51;93883.00;;;26.10
41940;BMP180;23057;48.554;14.454;2022-09-12T12:32:23;93882.00;;;26.20
41940;BMP180;23057;48.554;14.454;2022-09-12T12:35:00;93885.00;;;26.20
41940;BMP180;23057;48.554;14.454;2022-09-12T12:37:53;93877.00;;;26.50
41940;BMP180;23057;48.554;14.454;2022-09-12T12:40:26;93880.00;;;26.60
41940;BMP180;23057;48.554;14.454;2022-09-12T12:43:02;93875.00;;;26.60
41940;BMP180;23057;48.554;14.454;2022-09-12T12:48:14;93862.00;;;26.40
41940;BMP180;23057;48.554;14.454;2022-09-12T12:50:47;93872.00;;;26.40
41940;BMP180;23057;48.554;14.454;2022-09-12T12:53:24;93875.00;;;26.40
41940;BMP180;23057;48.554;14.454;2022-09-12T12:55:57;93869.00;;;26.40
41940;BMP180;23057;48.554;14.454;2022-09-12T12:58:37;93872.00;;;26.50
41940;BMP180;23057;48.554;14.454;2022-09-12T13:01:19;93876.00;;;26.50
41940;BMP180;23057;48.554;14.454;2022-09-12T13:03:59;93866.00;;;26.50
41940;BMP180;23057;48.554;14.454;2022-09-12T13:06:38;93865.00;;;26.50
41940;BMP180;23057;48.554;14.454;2022-09-12T13:09:19;93860.00;;;26.60
41940;BMP180;23057;48.554;14.454;2022-09-12T13:12:02;93861.00;;;26.60
41940;BMP180;23057;48.554;14.454;2022-09-12T13:14:56;93860.00;;;26.80
41940;BMP180;23057;48.554;14.454;2022-09-12T13:17:42;93860.00;;;26.90
41940;BMP180;23057;48.554;14.454;2022-09-12T13:20:23;93864.00;;;26.90
41940;BMP180;23057;48.554;14.454;2022-09-12T13:22:58;93865.00;;;26.90
41940;BMP180;23057;48.554;14.454;2022-09-12T13:25:34;93868.00;;;26.80
41940;BMP180;23057;48.554;14.454;2022-09-12T13:28:15;93853.00;;;26.90
41940;BMP180;23057;48.554;14.454;2022-09-12T13:31:11;93849.00;;;27.00
41940;BMP180;23057;48.554;14.454;2022-09-12T13:33:55;93854.00;;;27.20
41940;BMP180;23057;48.554;14.454;2022-09-12T13:37:04;93849.00;;;27.30
41940;BMP180;23057;48.554;14.454;2022-09-12T13:42:36;93847.00;;;27.40
41940;BMP180;23057;48.554;14.454;2022-09-12T13:45:19;93845.00;;;27.40
41940;BMP180;23057;48.554;14.454;2022-09-12T13:47:55;93844.00;;;27.50
41940;BMP180;23057;48.554;14.454;2022-09-12T13:50:35;93844.00;;;27.50
41940;BMP180;23057;48.554;14.454;2022-09-12T13:53:16;93839.00;;;27.60
41940;BMP180;23057;48.554;14.454;2022-09-12T13:55:57;93837.00;;;27.60
41940;BMP180;23057;48.554;14.454;2022-09-12T13:58:31;93839.00;;;27.60
41940;BMP180;23057;48.554;14.454;2022-09-12T14:01:14;93838.00;;;27.70
41940;BMP180;23057;48.554;14.454;2022-09-12T14:03:55;93836.00;;;27.70
41940;BMP180;23057;48.554;14.454;2022-09-12T14:06:47;93833.00;;;27.80
41940;BMP180;23057;48.554;14.454;2022-09-12T14:09:26;93832.00;;;27.90
41940;BMP180;23057;48.554;14.454;2022-09-12T14:12:01;93836.00;;;28.00
41940;BMP180;23057;48.554;14.454;2022-09-12T14:14:34;93835.00;;;27.90
41940;BMP180;23057;48.554;14.454;2022-09-12T14:20:13;93824.00;;;27.80
41940;BMP180;23057;48.554;14.454;2022-09-12T14:22:49;93827.00;;;27.70
41940;BMP180;23057;48.554;14.454;2022-09-12T14:25:22;93828.00;;;27.70
41940;BMP180;23057;48.554;14.454;2022-09-12T14:27:56;93836.00;;;27.70
41940;BMP180;23057;48.554;14.454;2022-09-12T14:30:28;93825.00;;;27.60
41940;BMP180;23057;48.554;14.454;2022-09-12T14:35:47;93828.00;;;27.30
41940;BMP180;23057;48.554;14.454;2022-09-12T14:38:40;93823.00;;;27.10
41940;BMP180;23057;48.554;14.454;2022-09-12T14:41:23;93818.00;;;26.90
41940;BMP180;23057;48.554;14.454;2022-09-12T14:44:06;93817.00;;;26.80
41940;BMP180;23057;48.554;14.454;2022-09-12T14:46:40;93816.00;;;26.70
41940;BMP180;23057;48.554;14.454;2022-09-12T14:49:25;93810.00;;;26.70
41940;BMP180;23057;48.554;14.454;2022-09-12T14:52:03;93808.00;;;26.60
41940;BMP180;23057;48.554;14.454;2022-09-12T14:54:38;93808.00;;;26.60
41940;BMP180;23057;48.554;14.454;2022-09-12T15:02:43;93815.00;;;26.40
41940;BMP180;23057;48.554;14.454;2022-09-12T15:05:18;93799.00;;;26.30
41940;BMP180;23057;48.554;14.454;2022-09-12T15:07:54;93806.00;;;26.30
41940;BMP180;23057;48.554;14.454;2022-09-12T15:10:34;93799.00;;;26.20
41940;BMP180;23057;48.554;14.454;2022-09-12T15:18:27;93793.00;;;26.20
41940;BMP180;23057;48.554;14.454;2022-09-12T15:21:04;93794.00;;;26.20
41940;BMP180;23057;48.554;14.454;2022-09-12T15:23:45;93793.00;;;26.30
41940;BMP180;23057;48.554;14.454;2022-09-12T15:26:22;93795.00;;;26.30
41940;BMP180;23057;48.554;14.454;2022-09-12T15:28:55;93795.00;;;26.20
41940;BMP180;23057;48.554;14.454;2022-09-12T15:31:29;93804.00;;;26.20
41940;BMP180;23057;48.554;14.454;2022-09-12T15:34:01;93794.00;;;26.20
41940;BMP180;23057;48.554;14.454;2022-09-12T15:36:32;93799.00;;;26.10
41940;BMP180;23057;48.554;14.454;2022-09-12T15:39:03;93789.00;;;26.10
41940;BMP180;23057;48.554;14.454;2022-09-12T15:41:35;93792.00;;;26.10
41940;BMP180;23057;48.554;14.454;2022-09-12T15:44:10;93789.00;;;26.00
41940;BMP180;23057;48.554;14.454;2022-09-12T15:46:42;93777.00;;;26.00
41940;BMP180;23057;48.554;14.454;2022-09-12T15:49:13;93788.00;;;26.10
41940;BMP180;23057;48.554;14.454;2022-09-12T15:51:44;93789.00;;;26.10
41940;BMP180;23057;48.554;14.454;2022-09-12T15:54:16;93786.00;;;26.10
41940;BMP180;23057;48.554;14.454;2022-09-12T15:56:48;93781.00;;;26.10
41940;BMP180;23057;48.554;14.454;2022-09-12T15:59:19;93790.00;;;26.10
41940;BMP180;23057;48.554;14.454;2022-09-12T16:01:49;93786.00;;;26.10
41940;BMP180;23057;48.554;14.454;2022-09-12T16:04:25;93787.00;;;26.00
41940;BMP180;23057;48.554;14.454;2022-09-12T16:06:57;93783.00;;;25.90
41940;BMP180;23057;48.554;14.454;2022-09-12T16:09:28;93786.00;;;25.80
41940;BMP180;23057;48.554;14.454;2022-09-12T16:11:59;93787.00;;;25.70
41940;BMP180;23057;48.554;14.454;2022-09-12T16:14:30;93785.00;;;25.70
41940;BMP180;23057;48.554;14.454;2022-09-12T16:17:01;93785.00;;;25.60
41940;BMP180;23057;48.554;14.454;2022-09-12T16:19:32;93788.00;;;25.50
41940;BMP180;23057;48.554;14.454;2022-09-12T16:22:03;93781.00;;;25.40
41940;BMP180;23057;48.554;14.454;2022-09-12T16:24:33;93781.00;;;25.30
41940;BMP180;23057;48.554;14.454;2022-09-12T16:27:05;93781.00;;;25.30
41940;BMP180;23057;48.554;14.454;2022-09-12T16:29:36;93778.00;;;25.30
41940;BMP180;23057;48.554;14.454;2022-09-12T16:32:06;93781.00;;;25.20
41940;BMP180;23057;48.554;14.454;2022-09-12T16:34:37;93772.00;;;25.20
41940;BMP180;23057;48.554;14.454;2022-09-12T16:37:08;93770.00;;;25.10
41940;BMP180;23057;48.554;14.454;2022-09-12T16:39:39;93774.00;;;25.10
41940;BMP180;23057;48.554;14.454;2022-09-12T16:42:09;93772.00;;;25.00
41940;BMP180;23057;48.554;14.454;2022-09-12T16:44:40;93768.00;;;25.00
41940;BMP180;23057;48.554;14.454;2022-09-12T16:47:12;93776.00;;;25.00
41940;BMP180;23057;48.554;14.454;2022-09-12T16:49:43;93769.00;;;25.00
41940;BMP180;23057;48.554;14.454;2022-09-12T16:52:14;93764.00;;;25.00
41940;BMP180;23057;48.554;14.454;2022-09-12T16:54:46;93762.00;;;24.90
41940;BMP180;23057;48.554;14.454;2022-09-12T16:57:16;93766.00;;;24.80